Flight Track Log - Related Links

Times and Time Zones

All times are in EST time to prevent confusion due to time zone crossing. See the EJA929 flight status page for this flight to view local times or setup timezone preferences in your user account.

Time Position Orientation Groundspeed Altitude Reporting Facility
EST Latitude Longitude Course Direction KTS MPH feet Rate Location/Type
Fri 03:36:29 PM 28.0000 -82.5333 360° North 166 191 1,000  Level Tampa TRACON
Fri 03:37:47 PM 28.0667 -82.5333 360° North 249 287 6,000 3,517 Climbing Tampa TRACON
Fri 03:38:54 PM 28.1500 -82.5333 360° North 281 323 9,500 2,097 Climbing Tampa TRACON
Fri 03:41:13 PM 28.3644 -82.5836 348° North 340 391 13,200 1,899 Climbing Jacksonville Center
Fri 03:42:13 PM 28.4689 -82.5856 359° North 355 409 15,800 2,250 Climbing Jacksonville Center
Fri 03:43:13 PM 28.5711 -82.5900 358° North 360 414 17,700 2,000 Climbing Jacksonville Center
Fri 03:44:13 PM 28.6797 -82.5919 359° North 371 427 19,800 2,400 Climbing Jacksonville Center
Fri 03:45:13 PM 28.7839 -82.6036 354° North 371 427 22,500 2,650 Climbing Jacksonville Center
Fri 03:46:13 PM 28.8925 -82.6197 353° North 376 433 25,100 2,650 Climbing Jacksonville Center
Fri 03:47:13 PM 28.9950 -82.6339 353° North 376 433 27,800 1,650 Climbing Jacksonville Center
Fri 03:48:13 PM 29.1056 -82.6503 353° North 382 440 28,400 750 Climbing Jacksonville Center
Fri 03:49:13 PM 29.2244 -82.6667 353° North 397 457 29,300 950 Climbing Jacksonville Center
Fri 03:50:13 PM 29.3456 -82.6831 353° North 419 482 30,300 1,000 Climbing Jacksonville Center
Fri 03:51:13 PM 29.4731 -82.6944 356° North 438 504 31,300 1,250 Climbing Jacksonville Center
Fri 03:52:13 PM 29.6003 -82.6919 North 451 519 32,800 1,100 Climbing Jacksonville Center
Fri 03:53:13 PM 29.7297 -82.6942 359° North 451 519 33,500 750 Climbing Jacksonville Center
Fri 03:54:13 PM 29.8550 -82.6914 North 462 532 34,300 900 Climbing Jacksonville Center
Fri 03:55:13 PM 29.9864 -82.6503 15° North 476 548 35,300 1,100 Climbing Jacksonville Center
Fri 03:56:13 PM 30.1158 -82.5997 19° North 476 548 36,500 1,400 Climbing Jacksonville Center
Fri 03:57:13 PM 30.2453 -82.5486 19° North 482 555 38,100 1,350 Climbing Jacksonville Center
Fri 03:58:13 PM 30.3558 -82.5050 19° North 482 555 39,200 1,050 Climbing Jacksonville Center
Fri 03:59:13 PM 30.4808 -82.4539 19° North 482 555 40,200 900 Climbing Jacksonville Center
Fri 04:00:13 PM 30.6100 -82.4050 18° North 482 555 41,000 400 Climbing Jacksonville Center
Fri 04:01:13 PM 30.7414 -82.3489 20° North 492 566 41,000  Level Jacksonville Center
Fri 04:02:13 PM 30.8789 -82.2947 19° North 505 581 41,000  Level Jacksonville Center
Fri 04:03:13 PM 31.0206 -82.2406 18° North 512 589 41,000  Level Jacksonville Center
Fri 04:04:13 PM 31.1625 -82.1836 19° North 524 603 41,000  Level Jacksonville Center
Fri 04:05:13 PM 31.3061 -82.1242 19° North 531 611 41,000  Level Jacksonville Center
Fri 04:06:13 PM 31.4456 -82.0669 19° North 536 617 41,000  Level Jacksonville Center
Fri 04:07:13 PM 31.5975 -82.0022 20° North 531 611 41,000  Level Jacksonville Center
Fri 04:08:13 PM 31.7289 -81.9522 18° North 537 618 41,000  Level Jacksonville Center
Fri 04:09:13 PM 31.8847 -81.8844 20° North 542 624 41,000  Level Jacksonville Center
Fri 04:10:13 PM 32.0264 -81.8267 19° North 542 624 41,000  Level Jacksonville Center
Fri 04:11:13 PM 32.1511 -81.7564 26° Northeast 542 624 41,000  Level Jacksonville Center
Fri 04:12:13 PM 32.3003 -81.6564 30° Northeast 548 631 41,000  Level Jacksonville Center
Fri 04:13:13 PM 32.4372 -81.5633 30° Northeast 559 643 41,000  Level Jacksonville Center
Fri 04:14:13 PM 32.5553 -81.4778 31° Northeast 554 638 41,000  Level Jacksonville Center
Fri 04:15:13 PM 32.7044 -81.3742 30° Northeast 554 638 41,000  Level Jacksonville Center
Fri 04:16:13 PM 32.8411 -81.2806 30° Northeast 554 638 41,000  Level Jacksonville Center
Fri 04:17:13 PM 32.9753 -81.1839 31° Northeast 554 638 41,000  Level Jacksonville Center
Fri 04:18:13 PM 33.1097 -81.0922 30° Northeast 554 638 41,000  Level Jacksonville Center
Fri 04:19:13 PM 33.2461 -80.9950 31° Northeast 554 638 41,000  Level Jacksonville Center
Fri 04:20:13 PM 33.3825 -80.8975 31° Northeast 554 638 41,000  Level Jacksonville Center
Fri 04:21:13 PM 33.5164 -80.8025 31° Northeast 554 638 41,000  Level Jacksonville Center
Fri 04:22:13 PM 33.6525 -80.7069 30° Northeast 554 638 41,000  Level Jacksonville Center
Fri 04:23:13 PM 33.7844 -80.6111 31° Northeast 554 638 41,000  Level Jacksonville Center
Fri 04:24:13 PM 33.9183 -80.5150 31° Northeast 554 638 41,000  Level Jacksonville Center
Fri 04:25:13 PM 34.0522 -80.4186 31° Northeast 554 638 41,000  Level Jacksonville Center
Fri 04:26:13 PM 34.1858 -80.3219 31° Northeast 549 632 41,000  Level Jacksonville Center
Fri 04:27:48 PM 34.3903 -80.1719 31° Northeast 558 642 41,000  Level Washington Center
Fri 04:28:52 PM 34.5208 -80.0747 32° Northeast 557 641 41,000  Level Washington Center
Fri 04:29:52 PM 34.6644 -79.9686 31° Northeast 563 648 41,000  Level Washington Center
Fri 04:30:56 PM 34.7958 -79.8717 31° Northeast 557 641 41,000  Level Washington Center
Fri 04:31:57 PM 34.9264 -79.7750 31° Northeast 549 632 41,000  Level Washington Center
Fri 04:33:00 PM 35.0594 -79.6767 31° Northeast 556 640 41,000  Level Washington Center
Fri 04:34:00 PM 35.1919 -79.5778 31° Northeast 557 641 41,000  Level Washington Center
Fri 04:35:04 PM 35.3508 -79.4619 31° Northeast 555 639 41,000  Level Washington Center
Fri 04:36:05 PM 35.4861 -79.3644 30° Northeast 566 651 41,000  Level Washington Center
Fri 04:37:09 PM 35.6194 -79.2681 30° Northeast 554 638 41,000  Level Washington Center
Fri 04:38:10 PM 35.7514 -79.1708 31° Northeast 552 635 41,000  Level Washington Center
Fri 04:39:11 PM 35.8825 -79.0725 31° Northeast 548 631 41,000  Level Washington Center
Fri 04:40:15 PM 36.0161 -78.9744 31° Northeast 550 633 41,000  Level Washington Center
Fri 04:41:16 PM 36.1500 -78.8747 31° Northeast 554 638 41,000  Level Washington Center
Fri 04:42:20 PM 36.3100 -78.7558 31° Northeast 558 642 41,000  Level Washington Center
Fri 04:43:21 PM 36.4425 -78.6567 31° Northeast 556 640 41,000  Level Washington Center
Fri 04:44:24 PM 36.5750 -78.5572 31° Northeast 556 640 41,000  Level Washington Center
Fri 04:45:26 PM 36.6933 -78.4678 31° Northeast 555 639 41,000  Level Washington Center
Fri 04:46:26 PM 36.8503 -78.3481 31° Northeast 551 634 41,000  Level Washington Center
Fri 04:47:30 PM 36.9747 -78.2547 31° Northeast 551 634 41,000  Level Washington Center
Fri 04:48:31 PM 37.1128 -78.1494 31° Northeast 553 636 41,000  Level Washington Center
Fri 04:49:35 PM 37.2442 -78.0472 32° Northeast 553 636 41,000  Level Washington Center
Fri 04:50:36 PM 37.3761 -77.9467 31° Northeast 554 638 41,000  Level Washington Center
Fri 04:51:37 PM 37.5328 -77.8228 32° Northeast 554 638 41,000  Level Washington Center
Fri 04:52:41 PM 37.6592 -77.7106 35° Northeast 554 638 41,000 -528 Level Washington Center
Fri 04:53:42 PM 37.7847 -77.5953 36° Northeast 554 638 39,900 -1,488 Descending Washington Center
Fri 04:54:46 PM 37.9086 -77.4822 36° Northeast 554 638 37,900 -1,680 Descending Washington Center
Fri 04:55:47 PM 38.0325 -77.3694 36° Northeast 551 634 36,400 -1,355 Descending Washington Center
Fri 04:56:50 PM 38.1722 -77.2422 36° Northeast 544 626 35,100 -683 Descending Washington Center
Fri 04:57:50 PM 38.2764 -77.1453 36° Northeast 544 626 35,000 -48 Descending Washington Center
Fri 04:58:54 PM 38.4183 -77.0139 36° Northeast 550 633 35,000 -581 Level Washington Center
Fri 04:59:54 PM 38.5425 -76.8986 36° Northeast 554 638 33,800 -1,306 Descending Washington Center
Fri 05:00:58 PM 38.6653 -76.7833 36° Northeast 554 638 32,300 -1,824 Descending Washington Center
Fri 05:01:59 PM 38.8064 -76.6311 40° Northeast 554 638 30,000 -2,256 Descending Washington Center
Fri 05:03:03 PM 38.9214 -76.4981 42° Northeast 560 644 27,600 -2,304 Descending Washington Center
Fri 05:04:04 PM 39.0314 -76.3700 42° Northeast 539 620 25,200 -1,770 Descending Washington Center
Fri 05:05:05 PM 39.1358 -76.2467 42° Northeast 518 596 24,000 -581 Descending Washington Center
Fri 05:06:08 PM 39.2394 -76.1267 42° Northeast 516 594 24,000 -97 Level Washington Center
Fri 05:07:09 PM 39.3703 -75.9947 38° Northeast 499 574 23,800 -1,248 Descending Washington Center
Fri 05:08:13 PM 39.4850 -75.8897 35° Northeast 502 578 21,400 -2,448 Descending Washington Center
Fri 05:09:14 PM 39.5892 -75.7900 36° Northeast 471 542 18,700 -2,226 Descending Washington Center
Fri 05:10:17 PM 39.6856 -75.7011 35° Northeast 430 495 16,800 -2,571 Descending Washington Center
Fri 05:11:13 PM 39.7833 -75.6167 34° Northeast 394 453 13,600 -1,869 Descending Philadelphia TRACON
Fri 05:12:19 PM 39.8833 -75.5167 37° Northeast 414 476 13,000 -286 Descending Philadelphia TRACON
Fri 05:13:19 PM 39.9833 -75.4333 33° Northeast 421 484 13,000  Level Philadelphia TRACON
Fri 05:14:19 PM 40.0667 -75.3500 37° Northeast 425 489 13,000 -263 Level Philadelphia TRACON
Fri 05:15:13 PM 40.1500 -75.2667 37° Northeast 400 460 12,500 -947 Descending Philadelphia TRACON
Fri 05:16:13 PM 40.2333 -75.2000 31° Northeast 318 366 11,200 -1,000 Descending Philadelphia TRACON
Fri 05:17:25 PM 40.3167 -75.1167 37° Northeast 304 350 10,300 -1,403 Descending Philadelphia TRACON
Fri 05:18:47 PM 40.4000 -75.0167 42° Northeast 290 334 7,600 -1,338 Descending New York TRACON
Fri 05:19:53 PM 40.4500 -74.9333 52° Northeast 283 326 7,000 -1,000 Descending New York TRACON
Fri 05:20:53 PM 40.5000 -74.8500 52° Northeast 284 327 5,500 -1,526 Descending New York TRACON
Fri 05:21:47 PM 40.5500 -74.7833 45° Northeast 253 291 4,100 -789 Descending New York TRACON
Fri 05:22:47 PM 40.6000 -74.7333 37° Northeast 250 288 4,000 -50 Descending New York TRACON
Fri 05:23:48 PM 40.6500 -74.6667 45° Northeast 252 290 4,000  Level New York TRACON
Fri 05:24:47 PM 40.7000 -74.6167 37° Northeast 235 270 4,000  Level New York TRACON
Fri 05:25:47 PM 40.7500 -74.5500 45° Northeast 245 282 4,000 -200 Level New York TRACON
Fri 05:26:47 PM 40.8000 -74.4833 45° Northeast 239 275 3,600 -500 Descending New York TRACON
Fri 05:27:47 PM 40.8500 -74.4167 45° Northeast 246 283 3,000 -300 Descending New York TRACON
Fri 05:28:47 PM 40.8833 -74.3500 57° Northeast 246 283 3,000  Level New York TRACON
Fri 05:29:47 PM 40.9333 -74.2833 45° Northeast 242 278 3,000 -100 Level New York TRACON
Fri 05:30:47 PM 40.9833 -74.2167 45° Northeast 245 282 2,800 -500 Descending New York TRACON
Fri 05:31:47 PM 41.0000 -74.1333 75° East 240 276 2,000 -381 Descending New York TRACON
Fri 05:32:53 PM 40.9667 -74.0667 123° Southeast 224 258 2,000 -248 Level New York TRACON
Fri 05:33:48 PM 40.9167 -74.0500 166° South 139 160 1,500 -684 Descending New York TRACON
Fri 05:34:47 PM 40.8833 -74.0500 180° South 124 143 700 -814 Descending New York TRACON

Login

Don't have an account? Register now (free) for customized features, flight alerts, and more!